Time;durP1;ratioP1;P1;durP2;ratioP2;P2;SDS_P1;SDS_P2;PMS_P1;PMS_P2;Temp;Humidity;BMP_temperature;BMP_pressure;BME280_temperature;BME280_humidity;BME280_pressure;Samples;Min_cycle;Max_cycle;Signal;HPM_P1;HPM_P2
2022/11/01 00:03:47;;;;;;;14.73;9.02;;;;;;;14.52;72.44;100205.94;10208140;28;20143;-61
2022/11/01 00:08:48;;;;;;;14.65;7.47;;;;;;;14.59;72.43;100187.03;10204401;28;20078;-61
2022/11/01 00:13:50;;;;;;;14.93;8.05;;;;;;;14.57;72.46;100191.81;10205464;28;20138;-61
2022/11/01 00:18:51;;;;;;;14.77;8.60;;;;;;;14.58;72.08;100204.31;10201229;28;20297;-61
2022/11/01 00:23:53;;;;;;;19.73;8.55;;;;;;;14.46;72.76;100193.22;10195003;28;20156;-61
2022/11/01 00:28:54;;;;;;;13.95;8.73;;;;;;;14.54;72.34;100206.56;10202905;28;20077;-61
2022/11/01 00:33:55;;;;;;;15.77;10.20;;;;;;;14.59;72.42;100204.13;10209422;29;20072;-61
2022/11/01 00:38:57;;;;;;;16.52;8.98;;;;;;;14.62;72.15;100195.56;10224248;28;20094;-61
2022/11/01 00:43:58;;;;;;;19.70;9.15;;;;;;;14.65;71.95;100210.56;10204213;28;20138;-61
2022/11/01 00:49:00;;;;;;;15.95;8.77;;;;;;;14.67;72.17;100197.66;10215061;28;20140;-61
2022/11/01 00:54:01;;;;;;;16.20;9.98;;;;;;;14.70;72.07;100202.66;10215767;28;20053;-61
2022/11/01 00:59:03;;;;;;;16.88;9.63;;;;;;;14.68;72.09;100197.44;10207724;28;20138;-61
2022/11/01 01:04:04;;;;;;;16.60;9.02;;;;;;;14.71;72.02;100201.63;10206809;28;20036;-61
2022/11/01 01:09:05;;;;;;;16.67;9.05;;;;;;;14.69;72.09;100187.44;10206137;28;20052;-61
2022/11/01 01:14:07;;;;;;;15.50;9.50;;;;;;;14.70;72.07;100181.00;10211927;28;20512;-61
2022/11/01 01:19:08;;;;;;;16.27;9.38;;;;;;;14.70;72.04;100172.91;10207890;28;20130;-61
2022/11/01 01:24:10;;;;;;;17.42;9.48;;;;;;;14.73;71.99;100166.22;10205251;28;20039;-61
2022/11/01 01:29:11;;;;;;;18.25;11.73;;;;;;;14.72;72.04;100154.59;10207455;28;20142;-61
2022/11/01 01:34:12;;;;;;;19.35;10.93;;;;;;;14.73;71.93;100153.56;10210702;28;20059;-61
2022/11/01 01:39:14;;;;;;;19.83;10.80;;;;;;;14.77;71.90;100149.38;10207471;28;20406;-61
2022/11/01 01:44:46;;;;;;;19.75;10.30;;;;;;;14.78;71.94;100133.97;10218782;28;20136;-61
2022/11/01 01:49:55;;;;;;;17.92;10.18;;;;;;;14.79;72.10;100138.34;10200662;29;20078;-61
2022/11/01 01:54:59;;;;;;;16.27;10.30;;;;;;;14.76;72.16;100141.47;10208826;28;20051;-61
2022/11/01 02:00:00;;;;;;;18.60;10.52;;;;;;;14.78;72.12;100139.38;10200258;28;20047;-61
2022/11/01 02:05:30;;;;;;;16.02;10.15;;;;;;;14.81;72.20;100134.41;10216665;28;20075;-61
2022/11/01 02:10:32;;;;;;;15.65;9.65;;;;;;;14.85;72.30;100141.06;10199132;29;20143;-61
2022/11/01 02:15:46;;;;;;;15.85;9.63;;;;;;;14.90;72.18;100132.28;10216908;28;20053;-61
2022/11/01 02:21:18;;;;;;;20.10;10.32;;;;;;;14.92;72.12;100130.22;10202125;28;20102;-61
2022/11/01 02:26:28;;;;;;;19.80;9.93;;;;;;;14.94;72.18;100136.25;10205019;28;20040;-61
2022/11/01 02:32:00;;;;;;;20.20;10.63;;;;;;;14.94;72.22;100132.72;10202737;28;20516;-61
2022/11/01 02:37:11;;;;;;;17.25;11.15;;;;;;;14.94;72.34;100135.41;10209235;28;20134;-61
2022/11/01 02:42:32;;;;;;;17.63;10.50;;;;;;;14.90;72.61;100139.59;10200689;28;20055;-61
2022/11/01 02:47:35;;;;;;;15.25;9.75;;;;;;;14.97;72.61;100137.69;10212225;28;20053;-61
2022/11/01 02:52:39;;;;;;;22.60;10.23;;;;;;;15.01;72.46;100138.97;10201147;29;20079;-61
2022/11/01 02:57:41;;;;;;;16.38;11.07;;;;;;;15.04;72.57;100139.34;10209284;28;20043;-61
2022/11/01 03:02:43;;;;;;;18.10;10.30;;;;;;;15.04;72.52;100141.22;10199039;28;20147;-61
2022/11/01 03:07:51;;;;;;;19.00;10.93;;;;;;;15.07;72.46;100135.41;10214148;28;20534;-61
2022/11/01 03:13:04;;;;;;;18.73;10.77;;;;;;;15.07;72.36;100117.28;10202062;28;20409;-61
2022/11/01 03:18:31;;;;;;;16.15;11.63;;;;;;;15.04;72.34;100128.53;10201611;28;20150;-61
2022/11/01 03:23:44;;;;;;;16.90;10.03;;;;;;;14.99;72.40;100157.28;10210582;29;20142;-61
2022/11/01 03:28:50;;;;;;;17.10;11.48;;;;;;;14.98;72.58;100178.09;10201428;28;20130;-61
2022/11/01 03:33:56;;;;;;;22.40;15.02;;;;;;;14.98;72.99;100185.38;10229392;28;20047;-61
2022/11/01 03:39:07;;;;;;;25.23;14.45;;;;;;;15.03;73.62;100189.13;10212055;28;20526;-61
2022/11/01 03:44:11;;;;;;;29.95;16.08;;;;;;;15.06;74.57;100194.13;10210355;28;20046;-61
2022/11/01 03:49:17;;;;;;;29.63;15.60;;;;;;;15.11;75.14;100198.09;10205726;28;20147;-61
2022/11/01 03:54:18;;;;;;;34.78;17.35;;;;;;;15.20;75.38;100194.94;10207294;28;20126;-62
2022/11/01 03:59:22;;;;;;;33.08;18.92;;;;;;;15.14;76.20;100194.94;10242333;28;20569;-61
2022/11/01 04:04:23;;;;;;;30.30;16.23;;;;;;;15.16;76.36;100193.69;10217683;28;20076;-60
2022/11/01 04:09:25;;;;;;;29.15;15.85;;;;;;;15.06;77.10;100196.00;10222809;28;20056;-61
2022/11/01 04:25:06;;;;;;;30.10;17.85;;;;;;;15.05;77.91;100211.41;10219895;28;20075;-61
2022/11/01 04:30:08;;;;;;;28.35;17.67;;;;;;;15.14;77.86;100213.91;10228109;28;20043;-61
2022/11/01 04:35:11;;;;;;;34.33;18.20;;;;;;;15.11;78.01;100223.28;10243261;28;20133;-62
2022/11/01 04:40:13;;;;;;;35.72;17.65;;;;;;;15.10;78.34;100228.91;10245779;28;20063;-62
2022/11/01 04:45:15;;;;;;;33.78;17.70;;;;;;;15.13;78.29;100225.78;10242482;28;20054;-62
2022/11/01 04:50:20;;;;;;;38.38;19.35;;;;;;;15.17;78.28;100227.03;10246605;28;20074;-61
2022/11/01 04:55:21;;;;;;;30.17;17.38;;;;;;;15.20;78.10;100227.44;10251021;28;20036;-61
2022/11/01 05:00:24;;;;;;;33.05;19.70;;;;;;;15.22;78.21;100227.22;10252117;28;20047;-62
2022/11/01 05:05:25;;;;;;;35.70;20.17;;;;;;;15.15;78.68;100237.25;10258376;28;20036;-63
2022/11/01 05:10:27;;;;;;;31.95;16.63;;;;;;;15.12;78.91;100243.88;10261350;28;20034;-62
2022/11/01 05:15:29;;;;;;;34.78;18.27;;;;;;;15.17;78.72;100246.81;10260265;28;20059;-63
2022/11/01 05:20:30;;;;;;;40.05;19.95;;;;;;;15.22;78.72;100246.19;10247508;29;20039;-62
2022/11/01 05:25:32;;;;;;;36.33;19.42;;;;;;;15.11;79.21;100249.53;10253231;28;20043;-61
2022/11/01 05:30:40;;;;;;;32.63;19.10;;;;;;;14.99;79.66;100258.28;10251892;28;20084;-62
2022/11/01 05:35:42;;;;;;;37.70;20.42;;;;;;;15.06;79.61;100255.56;10252027;29;20023;-62
2022/11/01 05:40:43;;;;;;;37.20;19.60;;;;;;;15.10;79.46;100258.69;10254056;28;20050;-63
2022/11/01 05:45:44;;;;;;;29.48;17.02;;;;;;;15.14;79.36;100271.59;10263704;28;20039;-62
2022/11/01 05:50:46;;;;;;;36.92;19.20;;;;;;;15.19;79.59;100271.81;10259136;28;20051;-62
2022/11/01 05:55:47;;;;;;;31.65;16.77;;;;;;;15.18;79.70;100282.84;10260764;28;20036;-61
2022/11/01 06:00:49;;;;;;;30.60;18.42;;;;;;;15.22;79.57;100271.38;10254095;28;20047;-60
2022/11/01 06:05:50;;;;;;;32.30;17.20;;;;;;;15.28;79.68;100280.53;10247790;28;20264;-61
2022/11/01 06:10:52;;;;;;;34.78;18.33;;;;;;;15.29;79.63;100278.69;10255778;28;20050;-61
2022/11/01 06:16:01;;;;;;;32.72;17.60;;;;;;;15.40;79.38;100280.75;10240818;28;20066;-61
2022/11/01 06:21:02;;;;;;;29.63;17.83;;;;;;;15.45;79.24;100303.47;10211557;29;20569;-61
2022/11/01 06:26:04;;;;;;;35.95;18.17;;;;;;;15.56;78.96;100309.28;10211627;28;20577;-62
2022/11/01 06:31:06;;;;;;;39.10;19.75;;;;;;;15.59;79.14;100317.84;10209518;28;20182;-62
2022/11/01 06:36:07;;;;;;;39.25;19.63;;;;;;;15.64;79.10;100319.94;10205963;28;20119;-62
2022/11/01 06:41:09;;;;;;;33.95;18.52;;;;;;;15.73;78.79;100320.56;10213418;28;20534;-61
2022/11/01 06:46:11;;;;;;;36.72;20.20;;;;;;;15.78;78.64;100318.06;10206938;28;20082;-62
2022/11/01 06:51:12;;;;;;;36.92;19.48;;;;;;;15.77;78.60;100321.81;10213755;28;20200;-61
2022/11/01 06:56:13;;;;;;;39.20;21.48;;;;;;;15.73;78.85;100332.25;10214104;29;20139;-62
2022/11/01 07:01:17;;;;;;;38.53;20.80;;;;;;;15.79;79.03;100336.81;10206993;28;20142;-62
2022/11/01 07:06:19;;;;;;;42.42;20.95;;;;;;;15.86;78.90;100348.50;10211986;28;20103;-62
2022/11/01 07:11:21;;;;;;;43.50;21.42;;;;;;;15.88;79.24;100358.28;10217068;28;20053;-62
2022/11/01 07:16:29;;;;;;;44.97;22.92;;;;;;;15.92;79.35;100362.25;10213685;28;20051;-62
2022/11/01 07:21:30;;;;;;;44.38;23.10;;;;;;;16.03;79.35;100370.59;10213902;28;20043;-62
2022/11/01 07:26:31;;;;;;;40.72;22.23;;;;;;;16.09;79.50;100373.47;10217805;28;20134;-62
2022/11/01 07:31:33;;;;;;;39.97;21.70;;;;;;;16.18;79.41;100377.63;10205855;28;20123;-62
2022/11/01 07:36:35;;;;;;;30.50;19.00;;;;;;;16.27;79.36;100387.19;10202925;28;20464;-62
2022/11/01 07:41:36;;;;;;;37.33;19.27;;;;;;;16.34;79.59;100395.34;10215079;28;20054;-62
2022/11/01 07:46:37;;;;;;;30.60;16.08;;;;;;;16.43;79.57;100396.78;10208365;28;20134;-62
2022/11/01 07:51:39;;;;;;;26.55;14.98;;;;;;;16.49;79.43;100397.78;10200689;28;20043;-62
2022/11/01 07:56:40;;;;;;;30.70;14.27;;;;;;;16.49;79.29;100398.63;10214892;29;20626;-62
2022/11/01 08:01:41;;;;;;;31.65;15.38;;;;;;;16.60;79.37;100414.22;10200749;28;20126;-62
2022/11/01 08:06:43;;;;;;;26.25;13.30;;;;;;;16.67;79.10;100408.78;10217517;28;20759;-62
2022/11/01 08:11:48;;;;;;;25.23;13.52;;;;;;;16.73;79.22;100413.38;10218983;28;20051;-62
2022/11/01 08:16:54;;;;;;;19.65;13.02;;;;;;;16.77;79.17;100417.31;10211237;28;20620;-62
2022/11/01 08:21:57;;;;;;;18.77;12.45;;;;;;;16.78;78.78;100413.53;10207150;28;20079;-61
2022/11/01 08:27:01;;;;;;;23.15;13.23;;;;;;;16.92;79.05;100422.47;10217074;28;20707;-62
2022/11/01 08:32:03;;;;;;;25.67;12.73;;;;;;;16.99;78.90;100428.72;10201872;28;20130;-61
2022/11/01 08:37:05;;;;;;;23.58;12.15;;;;;;;17.00;78.85;100426.84;10210642;28;20140;-61
2022/11/01 08:42:08;;;;;;;18.27;11.15;;;;;;;17.07;78.62;100435.78;10207912;28;20082;-61
2022/11/01 08:47:09;;;;;;;19.00;11.40;;;;;;;17.23;78.21;100445.31;10222242;28;20475;-61
2022/11/01 08:52:11;;;;;;;18.85;11.93;;;;;;;17.17;78.71;100457.88;10208755;28;20102;-62
2022/11/01 08:57:14;;;;;;;18.65;11.35;;;;;;;17.17;78.34;100459.78;10218542;28;20565;-62
2022/11/01 09:02:16;;;;;;;16.75;9.43;;;;;;;17.12;78.58;100460.44;10200859;28;20503;-62
2022/11/01 09:07:18;;;;;;;22.70;9.90;;;;;;;17.22;78.09;100454.53;10201392;28;20056;-62
2022/11/01 09:12:19;;;;;;;14.23;10.18;;;;;;;17.27;78.14;100472.91;10212398;28;20138;-62
2022/11/01 09:17:25;;;;;;;19.60;10.30;;;;;;;17.23;78.29;100469.78;10205420;28;20142;-61
2022/11/01 09:22:27;;;;;;;18.13;10.25;;;;;;;17.39;77.93;100484.75;10217698;28;20044;-62
2022/11/01 09:27:29;;;;;;;18.35;9.82;;;;;;;17.43;78.01;100475.91;10202597;28;20059;-62
2022/11/01 09:32:31;;;;;;;23.75;11.20;;;;;;;17.47;77.62;100468.16;10214592;29;20164;-62
2022/11/01 09:37:32;;;;;;;14.57;9.27;;;;;;;17.52;77.49;100479.22;10221924;28;20636;-62
2022/11/01 09:42:38;;;;;;;15.32;8.85;;;;;;;17.63;77.37;100478.53;10223740;28;20703;-61
2022/11/01 09:47:44;;;;;;;11.37;7.67;;;;;;;17.67;77.28;100483.53;10216517;28;20095;-62
2022/11/01 09:52:47;;;;;;;11.90;7.30;;;;;;;17.72;77.04;100492.69;10222537;28;20305;-61
2022/11/01 09:57:58;;;;;;;14.13;6.43;;;;;;;17.81;76.87;100493.25;10207809;28;20039;-61
2022/11/01 10:03:32;;;;;;;9.80;4.97;;;;;;;17.87;76.69;100495.13;10214671;28;20063;-61
2022/11/01 10:08:54;;;;;;;11.07;5.57;;;;;;;17.94;76.88;100506.78;10210440;28;20130;-61
2022/11/01 10:14:11;;;;;;;11.60;5.50;;;;;;;18.09;76.48;100508.34;10210210;28;20075;-61
2022/11/01 10:19:16;;;;;;;7.05;3.83;;;;;;;18.04;76.11;100509.84;10203942;28;20051;-61
2022/11/01 10:24:25;;;;;;;16.75;4.55;;;;;;;17.98;75.33;100512.63;10210781;28;20059;-61
2022/11/01 10:29:32;;;;;;;8.23;3.00;;;;;;;18.08;74.73;100512.13;10207733;28;20119;-61
2022/11/01 10:34:38;;;;;;;3.25;1.50;;;;;;;18.09;73.67;100509.19;10212928;28;20042;-61
2022/11/01 10:39:54;;;;;;;6.68;2.17;;;;;;;18.17;72.23;100505.38;10216649;28;20139;-61
2022/11/01 10:45:09;;;;;;;5.82;1.40;;;;;;;18.13;70.32;100506.88;10209559;29;20499;-61
2022/11/01 10:50:10;;;;;;;2.83;0.40;;;;;;;18.29;68.99;100505.47;10211727;28;20155;-61
2022/11/01 10:55:18;;;;;;;2.28;0.50;;;;;;;18.54;67.35;100494.53;10211485;28;20146;-60
2022/11/01 11:00:20;;;;;;;2.88;1.27;;;;;;;18.63;66.06;100506.81;10208071;28;20130;-60
2022/11/01 11:05:24;;;;;;;1.60;0.47;;;;;;;18.70;64.44;100506.72;10211873;28;20075;-60
2022/11/01 11:10:27;;;;;;;2.13;0.47;;;;;;;18.73;62.83;100512.56;10218439;28;20134;-60
2022/11/01 11:15:52;;;;;;;5.05;0.50;;;;;;;18.94;62.20;100519.50;10207857;28;20047;-60
2022/11/01 11:20:58;;;;;;;2.28;0.20;;;;;;;19.03;61.36;100522.72;10199762;29;20063;-60
2022/11/01 11:26:05;;;;;;;0.98;0.20;;;;;;;19.12;60.55;100524.09;10209749;28;20051;-60
2022/11/01 11:31:12;;;;;;;2.40;0.20;;;;;;;19.07;58.15;100517.66;10216488;28;20617;-60
2022/11/01 11:36:13;;;;;;;0.73;0.10;;;;;;;19.17;57.15;100532.44;10196371;28;20514;-60
2022/11/01 11:41:27;;;;;;;1.15;0.20;;;;;;;19.15;55.76;100529.06;10208821;28;20082;-60
2022/11/01 11:46:28;;;;;;;3.67;0.30;;;;;;;19.25;55.22;100539.44;10206236;29;20051;-60
2022/11/01 11:51:36;;;;;;;0.82;0.10;;;;;;;19.31;53.71;100546.72;10202717;29;20142;-60
2022/11/01 11:56:38;;;;;;;4.03;0.20;;;;;;;19.35;53.41;100545.22;10209480;28;20059;-61
2022/11/01 12:01:39;;;;;;;6.95;0.65;;;;;;;19.49;53.58;100539.56;10207468;28;20127;-61
2022/11/01 12:06:43;;;;;;;3.92;0.65;;;;;;;19.64;53.49;100550.06;10204499;28;20562;-62
2022/11/01 12:11:45;;;;;;;4.97;0.40;;;;;;;19.65;53.50;100541.66;10202679;28;20047;-62
2022/11/01 12:16:46;;;;;;;2.92;0.15;;;;;;;19.60;52.46;100546.97;10196571;28;21727;-60
2022/11/01 12:21:48;;;;;;;1.23;0.20;;;;;;;19.60;52.34;100534.16;10200580;28;20076;-60
2022/11/01 12:26:52;;;;;;;2.45;0.73;;;;;;;19.72;52.12;100530.69;10202559;29;20044;-62
2022/11/01 12:32:00;;;;;;;1.00;0.10;;;;;;;19.89;51.81;100528.13;10204267;28;20071;-61
2022/11/01 12:37:13;;;;;;;1.45;0.15;;;;;;;19.91;51.43;100545.09;10193918;28;20159;-60
2022/11/01 12:42:22;;;;;;;4.88;1.52;;;;;;;19.88;50.84;100540.91;10225760;28;20126;-60
2022/11/01 12:47:34;;;;;;;3.88;0.30;;;;;;;19.83;49.94;100529.91;10204847;29;20469;-60
2022/11/01 12:53:07;;;;;;;2.33;0.10;;;;;;;19.79;48.99;100545.88;10204368;28;20951;-60
2022/11/01 12:58:12;;;;;;;1.30;0.10;;;;;;;19.61;47.70;100537.75;10206979;29;20139;-60
2022/11/01 13:03:41;;;;;;;3.75;1.02;;;;;;;19.70;48.72;100539.06;10195454;29;20060;-60
2022/11/01 13:09:01;;;;;;;3.28;0.30;;;;;;;19.69;47.81;100533.81;10204291;28;20051;-61
2022/11/01 13:14:23;;;;;;;3.42;0.22;;;;;;;19.72;48.09;100550.59;10204322;28;20060;-60
2022/11/01 13:19:41;;;;;;;1.55;0.20;;;;;;;19.76;48.00;100540.06;10202166;28;20515;-60
2022/11/01 13:25:05;;;;;;;1.45;0.20;;;;;;;19.63;46.61;100541.06;10210453;28;20108;-60
2022/11/01 13:30:19;;;;;;;4.50;0.30;;;;;;;19.67;46.37;100541.41;10231798;28;20052;-60
2022/11/01 13:35:38;;;;;;;4.05;0.20;;;;;;;19.56;46.04;100534.84;10215673;28;20062;-60
2022/11/01 13:40:58;;;;;;;2.80;0.40;;;;;;;19.79;47.08;100548.63;10212237;28;20047;-60
2022/11/01 13:46:09;;;;;;;2.17;0.20;;;;;;;19.71;47.50;100551.69;10218365;28;20068;-60
2022/11/01 13:51:37;;;;;;;1.67;0.60;;;;;;;19.65;47.41;100546.25;10206132;28;20124;-60
2022/11/01 13:56:48;;;;;;;1.77;0.30;;;;;;;19.62;47.03;100551.13;10219770;28;20084;-60
2022/11/01 14:01:50;;;;;;;4.40;0.28;;;;;;;19.55;46.93;100557.72;10210937;28;20058;-60
2022/11/01 14:07:09;;;;;;;1.27;0.30;;;;;;;19.44;46.31;100564.78;10225762;28;20052;-60
2022/11/01 14:12:30;;;;;;;2.80;0.63;;;;;;;19.34;46.35;100559.88;10216140;28;20143;-60
2022/11/01 14:17:32;;;;;;;2.08;0.20;;;;;;;19.17;45.08;100561.56;10232769;28;20043;-60
2022/11/01 14:22:34;;;;;;;3.50;0.10;;;;;;;19.02;44.10;100565.50;10205324;28;20536;-60
2022/11/01 14:27:37;;;;;;;1.90;0.10;;;;;;;19.06;44.45;100571.34;10211076;28;20186;-60
2022/11/01 14:32:40;;;;;;;3.65;0.20;;;;;;;19.08;44.57;100571.94;10209246;29;20044;-60
2022/11/01 14:37:46;;;;;;;1.10;0.10;;;;;;;18.90;43.68;100567.31;10207345;28;20454;-61
2022/11/01 14:42:52;;;;;;;5.00;0.20;;;;;;;18.87;43.96;100566.94;10206235;29;20138;-60
2022/11/01 14:48:10;;;;;;;2.40;0.20;;;;;;;18.78;43.60;100566.38;10210417;28;20050;-60
2022/11/01 14:53:26;;;;;;;2.78;0.20;;;;;;;18.69;43.57;100562.25;10210957;28;20130;-60
2022/11/01 14:58:28;;;;;;;3.50;1.13;;;;;;;18.74;44.04;100563.25;10211391;28;20046;-60
2022/11/01 15:03:30;;;;;;;3.03;0.20;;;;;;;18.60;44.02;100570.72;10205438;29;20114;-60
2022/11/01 15:08:39;;;;;;;2.47;0.35;;;;;;;18.55;43.93;100573.28;10212337;28;20146;-60
2022/11/01 15:13:42;;;;;;;0.77;0.20;;;;;;;18.34;43.70;100579.09;10213142;28;20087;-60
2022/11/01 15:18:49;;;;;;;2.08;0.20;;;;;;;18.24;44.18;100583.13;10205796;28;20611;-60
2022/11/01 15:23:53;;;;;;;2.95;0.43;;;;;;;18.17;45.02;100585.09;10203467;29;20058;-60
2022/11/01 15:29:01;;;;;;;2.35;0.25;;;;;;;17.97;45.14;100587.97;10204368;28;20137;-60
2022/11/01 15:34:18;;;;;;;1.02;0.30;;;;;;;17.84;45.26;100580.69;10211899;28;20494;-59
2022/11/01 15:39:24;;;;;;;4.15;0.20;;;;;;;17.68;45.61;100591.25;10204377;28;20555;-60
2022/11/01 15:44:28;;;;;;;4.72;0.20;;;;;;;17.46;45.66;100591.53;10209970;29;20147;-59
2022/11/01 15:49:36;;;;;;;7.00;1.10;;;;;;;17.37;46.02;100585.50;10202753;28;20075;-60
2022/11/01 15:54:40;;;;;;;5.13;0.40;;;;;;;17.17;46.10;100591.00;10198616;28;20078;-60
2022/11/01 15:59:48;;;;;;;2.72;0.70;;;;;;;17.12;46.34;100590.81;10205322;29;20142;-60
2022/11/01 16:04:49;;;;;;;5.55;0.40;;;;;;;17.01;46.61;100596.91;10211975;28;20062;-60
2022/11/01 16:09:57;;;;;;;1.45;0.30;;;;;;;16.89;46.65;100602.16;10206005;28;20052;-60
2022/11/01 16:15:32;;;;;;;3.72;1.02;;;;;;;16.72;46.85;100604.41;10204530;28;20051;-60
2022/11/01 16:20:36;;;;;;;5.93;0.55;;;;;;;16.66;47.09;100629.69;10198719;28;20083;-60
2022/11/01 16:25:38;;;;;;;7.50;0.47;;;;;;;16.58;47.49;100633.44;10198372;28;20473;-60
2022/11/01 16:30:51;;;;;;;5.55;0.50;;;;;;;16.46;47.63;100635.94;10204300;28;20047;-60
2022/11/01 16:36:18;;;;;;;6.10;0.25;;;;;;;16.35;48.33;100643.88;10207335;29;20139;-59
2022/11/01 16:41:21;;;;;;;;;;;;;;;16.23;49.89;100660.78;10192877;29;20115;-60
2022/11/01 16:46:25;;;;;;;5.38;0.47;;;;;;;16.17;49.42;100663.44;10205941;28;20349;-60
2022/11/01 16:51:29;;;;;;;6.68;0.60;;;;;;;16.16;49.70;100668.06;10202146;28;20553;-60
2022/11/01 16:56:38;;;;;;;8.80;1.08;;;;;;;16.03;49.97;100655.31;10197940;28;20569;-60
2022/11/01 17:01:39;;;;;;;5.53;0.40;;;;;;;16.01;50.10;100679.06;10198283;28;20060;-60
2022/11/01 17:06:41;;;;;;;7.03;0.77;;;;;;;15.90;50.38;100682.38;10210751;28;20044;-60
2022/11/01 17:11:44;;;;;;;6.70;0.60;;;;;;;15.83;50.56;100687.75;10212688;28;20054;-61
2022/11/01 17:16:51;;;;;;;7.97;0.50;;;;;;;15.70;50.87;100690.41;10210258;29;20939;-60
2022/11/01 17:21:54;;;;;;;8.13;1.10;;;;;;;15.62;51.06;100696.81;10209946;28;21129;-60
2022/11/01 17:26:59;;;;;;;4.20;0.55;;;;;;;15.57;51.11;100690.31;10221503;28;20155;-60
2022/11/01 17:32:02;;;;;;;3.38;0.55;;;;;;;15.46;51.40;100697.13;10211712;28;20510;-60
2022/11/01 17:37:05;;;;;;;10.80;0.60;;;;;;;15.46;51.62;100697.97;10204984;28;20067;-60
2022/11/01 17:42:08;;;;;;;6.32;1.02;;;;;;;15.41;51.75;100705.84;10217261;29;20079;-60
2022/11/01 17:47:13;;;;;;;14.23;1.63;;;;;;;15.33;52.18;100697.88;10210527;28;20044;-60
2022/11/01 17:52:14;;;;;;;5.63;0.68;;;;;;;15.22;52.42;100699.25;10212333;28;20044;-60
2022/11/01 17:57:15;;;;;;;6.75;0.85;;;;;;;15.07;52.81;100704.78;10211379;28;20099;-60
2022/11/01 18:02:17;;;;;;;8.98;2.00;;;;;;;15.00;53.16;100722.03;10230561;28;20043;-60
2022/11/01 18:07:20;;;;;;;6.95;0.65;;;;;;;14.92;53.54;100716.75;10208310;28;20056;-59
2022/11/01 18:12:36;;;;;;;10.50;0.77;;;;;;;14.95;53.61;100713.63;10207653;29;20087;-59
2022/11/01 18:17:57;;;;;;;5.47;0.65;;;;;;;14.99;53.61;100725.78;10212106;29;20475;-60
2022/11/01 18:23:16;;;;;;;10.15;1.00;;;;;;;14.90;53.86;100735.88;10209934;29;20043;-59
2022/11/01 18:28:25;;;;;;;8.60;0.80;;;;;;;14.81;54.15;100737.91;10208175;29;20067;-59
2022/11/01 18:33:49;;;;;;;9.07;0.63;;;;;;;14.65;54.63;100736.31;10211088;29;20107;-59
2022/11/01 18:39:11;;;;;;;8.25;0.80;;;;;;;14.62;54.61;100741.25;10206881;28;20139;-59
2022/11/01 18:44:13;;;;;;;7.72;1.95;;;;;;;14.44;54.84;100739.78;10211668;28;20043;-59
2022/11/01 18:49:14;;;;;;;8.48;0.77;;;;;;;14.32;55.20;100754.03;10210320;28;20139;-59
2022/11/01 18:54:29;;;;;;;7.35;1.35;;;;;;;14.24;55.46;100747.69;10209145;29;20387;-59
2022/11/01 18:59:33;;;;;;;6.97;0.63;;;;;;;14.09;55.87;100749.56;10210695;28;20472;-59
2022/11/01 19:04:36;;;;;;;6.20;0.60;;;;;;;14.09;55.73;100763.94;10209019;28;20820;-61
2022/11/01 19:09:43;;;;;;;4.68;1.45;;;;;;;14.02;55.82;100756.75;10210932;28;20138;-61
2022/11/01 19:14:57;;;;;;;3.90;0.60;;;;;;;14.02;56.03;100759.47;10214833;28;20044;-61
2022/11/01 19:19:58;;;;;;;5.88;1.05;;;;;;;13.98;55.90;100763.56;10197832;28;20062;-61
2022/11/01 19:25:00;;;;;;;6.95;0.93;;;;;;;13.93;56.16;100760.59;10207648;29;20035;-61
2022/11/01 19:30:18;;;;;;;12.40;0.90;;;;;;;13.85;56.12;100758.84;10206418;28;20134;-61
2022/11/01 19:35:21;;;;;;;13.18;2.28;;;;;;;13.75;56.47;100758.28;10208908;29;20079;-61
2022/11/01 19:40:26;;;;;;;13.65;3.78;;;;;;;13.60;57.25;100758.28;10196229;28;20074;-62
2022/11/01 19:45:31;;;;;;;10.38;1.73;;;;;;;13.48;57.60;100760.59;10209101;28;20134;-61
2022/11/01 19:50:38;;;;;;;11.10;1.73;;;;;;;13.33;58.10;100763.28;10209913;28;20566;-64
2022/11/01 19:55:49;;;;;;;5.22;1.35;;;;;;;13.14;58.29;100767.31;10213697;28;20067;-61
2022/11/01 20:00:58;;;;;;;17.10;5.28;;;;;;;12.97;58.79;100774.69;10203671;29;20145;-61
2022/11/01 20:06:14;;;;;;;14.52;4.50;;;;;;;12.85;58.94;100776.97;10206334;28;20510;-63
2022/11/01 20:11:15;;;;;;;12.95;3.55;;;;;;;12.72;59.52;100774.06;10210131;28;20142;-64
2022/11/01 20:16:17;;;;;;;11.50;4.40;;;;;;;12.60;59.59;100784.44;10206725;28;20043;-63
2022/11/01 20:21:18;;;;;;;6.57;1.88;;;;;;;12.49;59.79;100793.75;10207620;28;20047;-62
2022/11/01 20:26:20;;;;;;;10.75;1.77;;;;;;;12.36;60.35;100784.56;10209319;29;20131;-62
2022/11/01 20:31:22;;;;;;;13.80;2.30;;;;;;;12.26;60.24;100793.72;10208930;28;20492;-62
2022/11/01 20:36:23;;;;;;;7.60;1.48;;;;;;;12.16;60.75;100805.72;10200967;29;20040;-63
2022/11/01 20:41:25;;;;;;;10.18;1.63;;;;;;;12.04;61.00;100811.47;10217967;28;21406;-63
2022/11/01 20:46:26;;;;;;;11.43;1.00;;;;;;;11.96;61.43;100808.81;10217827;28;20075;-62
2022/11/01 20:51:28;;;;;;;10.38;1.85;;;;;;;11.88;62.00;100812.34;10217086;28;20130;-62
2022/11/01 20:56:29;;;;;;;8.68;2.08;;;;;;;11.80;62.08;100825.00;10226092;29;20047;-63
2022/11/01 21:01:31;;;;;;;6.57;2.47;;;;;;;11.72;62.33;100828.56;10214849;28;20118;-62
2022/11/01 21:06:36;;;;;;;9.18;1.92;;;;;;;11.67;62.33;100829.09;10216706;29;20062;-63
2022/11/01 21:11:43;;;;;;;11.23;1.80;;;;;;;11.62;62.84;100838.69;10211763;28;20147;-62
2022/11/01 21:16:47;;;;;;;12.75;2.70;;;;;;;11.56;62.73;100829.44;10209167;28;20066;-62
2022/11/01 21:21:55;;;;;;;7.22;1.73;;;;;;;11.50;63.03;100851.66;10215638;28;20410;-61
2022/11/01 21:27:11;;;;;;;11.20;3.63;;;;;;;11.43;63.20;100840.75;10218092;28;20050;-62
2022/11/01 21:32:20;;;;;;;8.18;2.55;;;;;;;11.38;63.21;100837.69;10204166;28;20151;-60
2022/11/01 21:37:23;;;;;;;6.68;1.60;;;;;;;11.31;63.48;100839.38;10209311;28;20040;-60
2022/11/01 21:42:32;;;;;;;9.95;1.20;;;;;;;11.29;63.51;100849.47;10218919;28;20189;-60
2022/11/01 21:47:33;;;;;;;8.98;1.33;;;;;;;11.23;64.00;100840.22;10211255;28;20091;-61
2022/11/01 21:52:34;;;;;;;8.98;1.00;;;;;;;11.22;63.73;100830.47;10223016;28;20126;-62
2022/11/01 21:57:36;;;;;;;11.32;2.45;;;;;;;11.19;64.19;100830.78;10211807;28;20439;-61
2022/11/01 22:02:37;;;;;;;8.35;0.95;;;;;;;11.13;64.43;100831.47;10211203;28;20134;-62
2022/11/01 22:07:39;;;;;;;6.10;1.17;;;;;;;11.08;64.46;100831.16;10219554;28;20533;-63
2022/11/01 22:12:40;;;;;;;9.52;1.70;;;;;;;11.11;64.66;100828.09;10210517;28;20047;-62
2022/11/01 22:17:41;;;;;;;5.90;1.25;;;;;;;11.08;64.65;100834.69;10219745;28;20122;-61
2022/11/01 22:22:43;;;;;;;6.45;1.05;;;;;;;11.06;64.66;100827.78;10206741;28;20490;-61
2022/11/01 22:27:44;;;;;;;5.18;1.08;;;;;;;11.08;64.67;100834.69;10207663;28;20075;-61
2022/11/01 22:32:46;;;;;;;7.95;2.35;;;;;;;11.10;64.57;100832.66;10211805;29;20146;-62
2022/11/01 22:37:47;;;;;;;12.95;1.67;;;;;;;11.11;64.96;100830.81;10214600;28;20063;-59
2022/11/01 22:42:54;;;;;;;9.68;1.70;;;;;;;11.08;64.69;100826.59;10210314;28;20071;-62
2022/11/01 22:47:56;;;;;;;7.90;1.17;;;;;;;11.05;64.99;100829.63;10211475;28;20152;-62
2022/11/01 22:52:57;;;;;;;7.47;1.60;;;;;;;10.99;65.08;100838.34;10203772;28;20057;-62
2022/11/01 22:58:03;;;;;;;10.85;2.00;;;;;;;11.00;65.19;100828.44;10213584;28;20130;-59
2022/11/01 23:03:20;;;;;;;7.47;1.05;;;;;;;10.97;65.36;100828.78;10197482;28;20619;-61
2022/11/01 23:08:34;;;;;;;4.55;0.95;;;;;;;10.95;65.29;100838.88;10214192;28;20312;-59
2022/11/01 23:19:00;;;;;;;8.98;1.80;;;;;;;10.91;65.71;100832.97;10200682;28;20135;-62
2022/11/01 23:24:01;;;;;;;11.48;1.38;;;;;;;10.87;65.72;100837.84;10220386;28;20106;-63
2022/11/01 23:29:03;;;;;;;13.18;3.25;;;;;;;10.83;65.76;100838.34;10204531;28;20055;-63
2022/11/01 23:34:04;;;;;;;10.32;1.88;;;;;;;10.79;65.60;100835.13;10200649;28;20151;-63